Time;durP1;ratioP1;P1;durP2;ratioP2;P2;SDS_P1;SDS_P2;PMS_P1;PMS_P2;Temp;Humidity;BMP_temperature;BMP_pressure;BME280_temperature;BME280_humidity;BME280_pressure;Samples;Min_cycle;Max_cycle;Signal;HPM_P1;HPM_P2
2024/03/21 00:01:13;;;;;;;6.97;5.65;;;;;;;;;;10279643;28;20134;-61
2024/03/21 00:06:12;;;;;;;9.75;6.10;;;;;;;;;;10275689;28;20065;-62
2024/03/21 00:11:09;;;;;;;8.05;6.63;;;;;;;;;;10278550;28;20076;-62
2024/03/21 00:16:07;;;;;;;9.73;6.75;;;;;;;;;;10276161;28;20086;-62
2024/03/21 00:21:05;;;;;;;11.20;8.05;;;;;;;;;;10275934;28;20082;-62
2024/03/21 00:26:05;;;;;;;8.38;6.88;;;;;;;;;;10275658;28;20079;-62
2024/03/21 00:31:02;;;;;;;6.78;5.50;;;;;;;;;;10281833;28;20076;-62
2024/03/21 00:35:59;;;;;;;8.00;6.50;;;;;;;;;;10277111;28;20099;-62
2024/03/21 00:40:57;;;;;;;7.10;6.40;;;;;;;;;;10275177;28;20060;-63
2024/03/21 00:45:56;;;;;;;6.72;6.03;;;;;;;;;;10274738;28;20064;-62
2024/03/21 00:50:53;;;;;;;6.40;5.57;;;;;;;;;;10275119;28;20098;-62
2024/03/21 00:55:50;;;;;;;7.93;6.07;;;;;;;;;;10281969;28;20064;-62
2024/03/21 01:00:48;;;;;;;7.25;6.43;;;;;;;;;;10281405;28;20064;-62
2024/03/21 01:05:51;;;;;;;7.63;6.20;;;;;;;;;;10271204;28;20443;-61
2024/03/21 01:10:49;;;;;;;8.30;7.38;;;;;;;;;;10278642;28;20088;-63
2024/03/21 01:15:47;;;;;;;9.80;8.38;;;;;;;;;;10276202;28;20095;-62
2024/03/21 01:20:44;;;;;;;10.43;8.73;;;;;;;;;;10275870;28;20092;-62
2024/03/21 01:25:43;;;;;;;10.23;8.38;;;;;;;;;;10275184;28;20060;-62
2024/03/21 01:30:40;;;;;;;10.23;8.18;;;;;;;;;;10275238;28;20533;-62
2024/03/21 01:35:38;;;;;;;10.15;8.90;;;;;;;;;;10273757;28;20458;-61
2024/03/21 01:40:36;;;;;;;21.58;11.40;;;;;;;;;;10262997;28;20707;-60
2024/03/21 01:45:37;;;;;;;11.68;9.93;;;;;;;;;;10278793;28;20072;-61
2024/03/21 01:50:35;;;;;;;11.63;10.40;;;;;;;;;;10288821;28;20069;-62
2024/03/21 01:55:33;;;;;;;11.80;9.63;;;;;;;;;;10283069;28;20060;-61
2024/03/21 02:00:30;;;;;;;16.73;9.88;;;;;;;;;;10287903;28;20123;-62
2024/03/21 02:05:29;;;;;;;14.38;11.05;;;;;;;;;;10283771;28;20513;-62
2024/03/21 02:10:26;;;;;;;12.18;10.25;;;;;;;;;;10280066;28;20084;-61
2024/03/21 02:15:24;;;;;;;12.38;10.55;;;;;;;;;;10285422;28;20524;-62
2024/03/21 02:20:21;;;;;;;11.02;9.80;;;;;;;;;;10286135;28;20080;-62
2024/03/21 02:25:20;;;;;;;12.90;10.45;;;;;;;;;;10282434;28;20075;-63
2024/03/21 02:30:18;;;;;;;13.60;10.52;;;;;;;;;;10281020;28;20102;-62
2024/03/21 02:35:17;;;;;;;14.32;11.45;;;;;;;;;;10275817;28;20053;-61
2024/03/21 02:40:14;;;;;;;16.52;12.70;;;;;;;;;;10282210;28;20072;-62
2024/03/21 02:45:13;;;;;;;14.10;10.98;;;;;;;;;;10277800;28;20071;-62
2024/03/21 02:50:11;;;;;;;16.85;10.93;;;;;;;;;;10280712;28;20068;-62
2024/03/21 02:55:08;;;;;;;16.42;12.23;;;;;;;;;;10278655;28;20628;-62
2024/03/21 03:00:06;;;;;;;12.88;10.75;;;;;;;;;;10280364;28;20067;-62
2024/03/21 03:05:10;;;;;;;18.67;11.52;;;;;;;;;;10280171;28;20088;-60
2024/03/21 03:10:08;;;;;;;16.52;11.15;;;;;;;;;;10298211;28;20069;-62
2024/03/21 03:15:05;;;;;;;19.35;17.10;;;;;;;;;;10285629;28;20454;-61
2024/03/21 03:20:03;;;;;;;17.65;12.43;;;;;;;;;;10277839;28;20075;-63
2024/03/21 03:25:03;;;;;;;17.48;11.07;;;;;;;;;;10286766;28;20064;-63
2024/03/21 03:30:03;;;;;;;12.85;11.02;;;;;;;;;;10277201;28;20868;-62
2024/03/21 03:40:17;;;;;;;12.00;10.47;;;;;;;;;;10284175;28;20076;-63
2024/03/21 03:45:14;;;;;;;14.00;11.20;;;;;;;;;;10284987;28;20067;-61
2024/03/21 03:50:12;;;;;;;12.77;10.60;;;;;;;;;;10277234;28;20509;-61
2024/03/21 03:55:09;;;;;;;12.57;9.52;;;;;;;;;;10277629;28;20060;-61
2024/03/21 04:00:10;;;;;;;12.95;9.93;;;;;;;;;;10277556;28;20080;-62
2024/03/21 04:05:10;;;;;;;10.30;9.23;;;;;;;;;;10280844;28;20092;-62
2024/03/21 04:10:09;;;;;;;10.38;9.27;;;;;;;;;;10277603;28;20079;-62
2024/03/21 04:15:07;;;;;;;11.30;8.63;;;;;;;;;;10277237;28;20490;-62
2024/03/21 04:20:07;;;;;;;10.93;9.60;;;;;;;;;;10280628;28;20502;-61
2024/03/21 04:25:05;;;;;;;10.90;8.80;;;;;;;;;;10269784;28;20103;-62
2024/03/21 04:30:03;;;;;;;11.57;9.35;;;;;;;;;;10282363;28;20064;-62
2024/03/21 04:35:00;;;;;;;16.98;12.90;;;;;;;;;;10280820;28;20159;-62
2024/03/21 04:39:59;;;;;;;9.45;8.35;;;;;;;;;;10278079;28;20518;-61
2024/03/21 04:44:57;;;;;;;9.68;8.27;;;;;;;;;;10271558;28;20071;-61
2024/03/21 04:49:55;;;;;;;10.43;8.43;;;;;;;;;;10278809;28;20064;-62
2024/03/21 04:54:52;;;;;;;8.98;8.07;;;;;;;;;;10279019;28;20156;-62
2024/03/21 04:59:53;;;;;;;12.88;10.63;;;;;;;;;;10273890;28;20079;-61
2024/03/21 05:04:51;;;;;;;23.83;17.63;;;;;;;;;;10279497;28;20076;-61
2024/03/21 05:09:49;;;;;;;16.20;12.90;;;;;;;;;;10277087;28;20064;-61
2024/03/21 05:14:46;;;;;;;10.68;8.10;;;;;;;;;;10252868;28;20462;-61
2024/03/21 05:19:45;;;;;;;10.77;9.77;;;;;;;;;;10255707;28;20080;-61
2024/03/21 05:24:43;;;;;;;11.75;9.45;;;;;;;;;;10249867;28;20732;-61
2024/03/21 05:29:42;;;;;;;9.88;8.88;;;;;;;;;;10251162;28;20077;-61
2024/03/21 05:34:39;;;;;;;11.55;9.93;;;;;;;;;;10251353;28;20081;-61
2024/03/21 05:39:38;;;;;;;16.75;10.10;;;;;;;;;;10250093;28;20807;-62
2024/03/21 05:44:35;;;;;;;13.77;10.38;;;;;;;;;;10254667;28;20073;-60
2024/03/21 05:49:33;;;;;;;14.93;9.82;;;;;;;;;;10254706;28;20511;-61
2024/03/21 05:54:30;;;;;;;27.15;15.40;;;;;;;;;;10249695;28;20518;-61
2024/03/21 05:59:29;;;;;;;14.82;10.30;;;;;;;;;;10252467;28;20080;-62
2024/03/21 06:04:26;;;;;;;10.45;9.35;;;;;;;;;;10244679;28;20083;-62
2024/03/21 06:09:25;;;;;;;9.73;8.70;;;;;;;;;;10253177;28;20103;-63
2024/03/21 06:14:22;;;;;;;8.98;8.07;;;;;;;;;;10252972;28;20087;-61
2024/03/21 06:19:21;;;;;;;11.43;8.38;;;;;;;;;;10252790;28;20092;-61
2024/03/21 06:24:19;;;;;;;11.23;9.00;;;;;;;;;;10254403;28;20080;-61
2024/03/21 06:29:16;;;;;;;10.95;8.85;;;;;;;;;;10250064;28;20045;-61
2024/03/21 06:34:14;;;;;;;10.38;8.43;;;;;;;;;;10263218;28;20069;-62
2024/03/21 06:39:13;;;;;;;9.65;8.43;;;;;;;;;;10259644;28;20076;-61
2024/03/21 06:44:11;;;;;;;12.07;9.45;;;;;;;;;;10256764;28;20072;-61
2024/03/21 06:49:08;;;;;;;11.55;9.32;;;;;;;;;;10256139;28;20570;-62
2024/03/21 06:54:09;;;;;;;11.65;9.85;;;;;;;;;;10254760;28;20062;-62
2024/03/21 06:59:08;;;;;;;11.75;9.38;;;;;;;;;;10260376;28;20167;-62
2024/03/21 07:04:08;;;;;;;10.43;8.85;;;;;;;;;;10258108;28;20072;-61
2024/03/21 07:09:05;;;;;;;11.52;9.77;;;;;;;;;;10259612;28;20083;-61
2024/03/21 07:14:05;;;;;;;13.20;9.30;;;;;;;;;;10257443;28;20092;-62
2024/03/21 07:19:04;;;;;;;14.63;9.52;;;;;;;;;;10272210;28;20073;-62
2024/03/21 07:24:01;;;;;;;10.80;9.02;;;;;;;;;;10250457;28;20056;-61
2024/03/21 07:28:59;;;;;;;15.40;9.30;;;;;;;;;;10254548;28;20146;-59
2024/03/21 07:33:56;;;;;;;10.57;8.88;;;;;;;;;;10261741;28;20084;-62
2024/03/21 07:38:56;;;;;;;9.73;8.77;;;;;;;;;;10253115;28;20669;-57
2024/03/21 07:43:53;;;;;;;11.93;7.97;;;;;;;;;;10249696;28;20317;-58
2024/03/21 07:48:51;;;;;;;11.10;8.00;;;;;;;;;;10252044;28;20076;-58
2024/03/21 07:53:48;;;;;;;9.77;8.77;;;;;;;;;;10251733;28;20072;-58
2024/03/21 07:58:47;;;;;;;8.38;7.57;;;;;;;;;;10260214;28;20081;-58
2024/03/21 08:03:45;;;;;;;15.35;8.00;;;;;;;;;;10253762;28;20100;-57
2024/03/21 08:08:42;;;;;;;8.48;7.07;;;;;;;;;;10255051;28;20587;-57
2024/03/21 08:13:40;;;;;;;9.90;7.03;;;;;;;;;;10260674;28;20079;-59
2024/03/21 08:18:39;;;;;;;8.50;7.47;;;;;;;;;;10256647;28;20077;-60
2024/03/21 08:23:37;;;;;;;8.85;7.75;;;;;;;;;;10257589;28;20108;-58
2024/03/21 08:28:36;;;;;;;7.38;6.57;;;;;;;;;;10254523;28;20520;-57
2024/03/21 08:33:34;;;;;;;9.45;7.93;;;;;;;;;;10254972;28;20064;-58
2024/03/21 08:38:33;;;;;;;7.78;7.00;;;;;;;;;;10253911;28;20076;-56
2024/03/21 08:43:30;;;;;;;8.80;7.88;;;;;;;;;;10255091;28;20096;-57
2024/03/21 08:48:29;;;;;;;7.57;6.82;;;;;;;;;;10257525;28;20068;-57
2024/03/21 08:53:26;;;;;;;7.88;7.07;;;;;;;;;;10238183;28;20073;-58
2024/03/21 08:58:26;;;;;;;8.23;7.10;;;;;;;;;;10256058;28;20076;-58
2024/03/21 09:03:23;;;;;;;8.25;7.35;;;;;;;;;;10254841;28;20081;-57
2024/03/21 09:08:21;;;;;;;8.32;7.43;;;;;;;;;;10251003;28;20073;-58
2024/03/21 09:13:19;;;;;;;9.80;8.80;;;;;;;;;;10249091;28;20089;-57
2024/03/21 09:18:17;;;;;;;8.57;7.50;;;;;;;;;;10248533;28;20540;-57
2024/03/21 09:23:15;;;;;;;6.95;6.25;;;;;;;;;;10252760;28;20072;-58
2024/03/21 09:28:13;;;;;;;7.70;6.70;;;;;;;;;;10254073;28;20096;-59
2024/03/21 09:33:10;;;;;;;6.00;4.88;;;;;;;;;;10255938;28;20079;-58
2024/03/21 09:38:09;;;;;;;6.50;5.30;;;;;;;;;;10261382;28;20089;-57
2024/03/21 09:43:07;;;;;;;3.72;3.40;;;;;;;;;;10252108;28;20096;-58
2024/03/21 09:48:05;;;;;;;3.88;3.45;;;;;;;;;;10250142;28;20080;-57
2024/03/21 09:53:02;;;;;;;5.30;4.60;;;;;;;;;;10246844;28;20069;-58
2024/03/21 09:58:01;;;;;;;4.05;2.83;;;;;;;;;;10253925;28;20061;-57
2024/03/21 10:02:58;;;;;;;5.43;4.82;;;;;;;;;;10251700;28;20458;-55
2024/03/21 10:07:56;;;;;;;7.07;4.90;;;;;;;;;;10258030;28;20061;-57
2024/03/21 10:12:55;;;;;;;12.95;5.70;;;;;;;;;;10256933;28;20533;-59
2024/03/21 10:17:54;;;;;;;4.90;3.88;;;;;;;;;;10242338;28;20083;-59
2024/03/21 10:22:53;;;;;;;3.00;2.63;;;;;;;;;;10252530;28;20079;-59
2024/03/21 10:27:51;;;;;;;4.38;3.83;;;;;;;;;;10256638;28;20530;-58
2024/03/21 10:32:48;;;;;;;6.82;4.15;;;;;;;;;;10258106;28;20076;-59
2024/03/21 10:37:47;;;;;;;11.55;6.43;;;;;;;;;;10255756;28;20073;-57
2024/03/21 10:42:49;;;;;;;3.03;2.83;;;;;;;;;;10255586;28;20076;-57
2024/03/21 10:47:47;;;;;;;3.95;3.58;;;;;;;;;;10251571;28;20077;-57
2024/03/21 10:52:50;;;;;;;3.42;3.03;;;;;;;;;;10261646;28;20072;-58
2024/03/21 10:57:50;;;;;;;3.42;3.13;;;;;;;;;;10237942;28;20080;-59
2024/03/21 11:02:49;;;;;;;3.72;3.35;;;;;;;;;;10254988;28;20072;-55
2024/03/21 11:07:48;;;;;;;9.77;5.15;;;;;;;;;;10242926;28;20078;-56
2024/03/21 11:12:45;;;;;;;4.25;3.33;;;;;;;;;;10278363;28;20076;-58
2024/03/21 11:17:43;;;;;;;3.40;3.10;;;;;;;;;;10273684;28;20076;-58
2024/03/21 11:22:44;;;;;;;11.02;3.45;;;;;;;;;;10274234;28;20072;-58
2024/03/21 11:27:43;;;;;;;3.50;3.20;;;;;;;;;;10269180;28;20068;-56
2024/03/21 11:32:41;;;;;;;5.70;4.22;;;;;;;;;;10291113;28;20079;-59
2024/03/21 11:37:38;;;;;;;4.70;3.60;;;;;;;;;;10280681;28;20087;-59
2024/03/21 11:42:36;;;;;;;5.18;4.32;;;;;;;;;;10284204;28;20056;-57
2024/03/21 11:47:35;;;;;;;3.50;3.20;;;;;;;;;;10280162;28;20157;-57
2024/03/21 11:52:32;;;;;;;5.43;4.68;;;;;;;;;;10280656;28;20069;-57
2024/03/21 11:57:31;;;;;;;4.75;3.70;;;;;;;;;;10278574;28;20083;-58
2024/03/21 12:02:28;;;;;;;4.18;3.78;;;;;;;;;;10276990;28;20068;-59
2024/03/21 12:07:27;;;;;;;4.38;3.97;;;;;;;;;;10279897;28;20067;-58
2024/03/21 12:12:25;;;;;;;5.47;3.72;;;;;;;;;;10282601;28;20081;-58
2024/03/21 12:17:22;;;;;;;5.97;4.35;;;;;;;;;;10266553;28;20072;-57
2024/03/21 12:22:20;;;;;;;4.75;4.32;;;;;;;;;;10276657;28;20557;-57
2024/03/21 12:27:19;;;;;;;4.97;4.57;;;;;;;;;;10297244;28;20087;-59
2024/03/21 12:32:16;;;;;;;7.32;5.03;;;;;;;;;;10272277;28;20068;-57
2024/03/21 12:37:13;;;;;;;4.78;4.30;;;;;;;;;;10272174;28;20060;-60
2024/03/21 12:42:12;;;;;;;11.98;9.52;;;;;;;;;;10274022;28;20102;-59
2024/03/21 12:47:11;;;;;;;5.00;4.50;;;;;;;;;;10274463;28;20079;-59
2024/03/21 12:52:09;;;;;;;4.65;4.13;;;;;;;;;;10271165;28;20079;-58
2024/03/21 12:57:06;;;;;;;5.18;4.68;;;;;;;;;;10272355;28;20083;-58
2024/03/21 13:02:04;;;;;;;6.55;4.85;;;;;;;;;;10277919;28;20087;-58
2024/03/21 13:07:03;;;;;;;11.25;5.53;;;;;;;;;;10279660;28;20079;-57
2024/03/21 13:12:00;;;;;;;7.13;5.15;;;;;;;;;;10269695;28;20103;-59
2024/03/21 13:16:58;;;;;;;5.47;4.65;;;;;;;;;;10276725;28;20473;-58
2024/03/21 13:21:55;;;;;;;18.15;12.25;;;;;;;;;;10283826;28;20095;-58
2024/03/21 13:26:54;;;;;;;7.03;6.07;;;;;;;;;;10274090;28;20073;-58
2024/03/21 13:31:51;;;;;;;6.90;5.88;;;;;;;;;;10276507;28;20061;-58
2024/03/21 13:36:49;;;;;;;9.32;5.85;;;;;;;;;;10274838;28;20068;-58
2024/03/21 13:41:46;;;;;;;10.73;6.57;;;;;;;;;;10296697;28;20076;-58
2024/03/21 13:46:47;;;;;;;9.10;5.65;;;;;;;;;;10289731;28;20493;-58
2024/03/21 13:51:45;;;;;;;12.13;6.63;;;;;;;;;;10287757;28;20088;-57
2024/03/21 13:56:43;;;;;;;6.90;6.20;;;;;;;;;;10288888;28;20064;-58
2024/03/21 14:01:40;;;;;;;7.13;5.85;;;;;;;;;;10282643;28;20080;-58
2024/03/21 14:06:39;;;;;;;5.78;4.93;;;;;;;;;;10289515;28;20088;-58
2024/03/21 14:11:37;;;;;;;7.07;5.40;;;;;;;;;;10285932;28;20085;-58
2024/03/21 14:16:35;;;;;;;6.57;5.13;;;;;;;;;;10288938;28;20060;-57
2024/03/21 14:21:32;;;;;;;7.63;4.57;;;;;;;;;;10281237;28;20087;-58
2024/03/21 14:26:34;;;;;;;9.60;6.65;;;;;;;;;;10283189;28;20068;-58
2024/03/21 14:31:32;;;;;;;6.32;5.55;;;;;;;;;;10299915;28;20077;-59
2024/03/21 14:36:29;;;;;;;13.70;10.55;;;;;;;;;;10286160;28;20073;-57
2024/03/21 14:41:27;;;;;;;17.30;15.25;;;;;;;;;;10280683;28;20064;-58
2024/03/21 14:46:26;;;;;;;11.88;5.65;;;;;;;;;;10273138;28;20071;-57
2024/03/21 14:51:23;;;;;;;9.13;5.57;;;;;;;;;;10267151;28;20061;-59
2024/03/21 14:56:20;;;;;;;9.73;7.70;;;;;;;;;;10269282;28;20068;-58
2024/03/21 15:01:18;;;;;;;9.35;7.35;;;;;;;;;;10268644;28;20087;-60
2024/03/21 15:06:17;;;;;;;6.90;4.80;;;;;;;;;;10269069;28;20376;-59
2024/03/21 15:11:15;;;;;;;7.80;6.47;;;;;;;;;;10270397;28;20087;-60
2024/03/21 15:16:12;;;;;;;7.25;5.28;;;;;;;;;;10272263;28;20060;-59
2024/03/21 15:21:10;;;;;;;13.77;9.45;;;;;;;;;;10274411;28;20071;-59
2024/03/21 15:26:08;;;;;;;12.43;9.07;;;;;;;;;;10278002;28;20064;-59
2024/03/21 15:31:06;;;;;;;6.38;5.30;;;;;;;;;;10279236;28;20069;-59
2024/03/21 15:36:04;;;;;;;7.50;5.90;;;;;;;;;;10277980;28;20465;-59
2024/03/21 15:41:01;;;;;;;7.22;6.53;;;;;;;;;;10276941;28;20142;-58
2024/03/21 15:46:00;;;;;;;9.32;5.70;;;;;;;;;;10285221;28;20469;-60
2024/03/21 15:50:58;;;;;;;13.23;6.30;;;;;;;;;;10276922;28;20537;-58
2024/03/21 15:55:55;;;;;;;9.45;6.15;;;;;;;;;;10282999;28;20060;-58
2024/03/21 16:00:53;;;;;;;8.30;4.85;;;;;;;;;;10282095;28;20080;-58
2024/03/21 16:05:51;;;;;;;12.25;6.47;;;;;;;;;;10278394;28;20063;-59
2024/03/21 16:10:49;;;;;;;10.30;7.18;;;;;;;;;;10269963;28;20173;-58
2024/03/21 16:15:48;;;;;;;10.80;7.40;;;;;;;;;;10234958;28;20091;-58
2024/03/21 16:20:45;;;;;;;36.35;28.02;;;;;;;;;;10241253;28;20079;-56
2024/03/21 16:25:44;;;;;;;19.88;15.25;;;;;;;;;;10247242;28;20072;-58
2024/03/21 16:30:42;;;;;;;12.35;9.30;;;;;;;;;;10247372;28;20069;-57
2024/03/21 16:35:39;;;;;;;22.00;16.63;;;;;;;;;;10245855;28;20100;-59
2024/03/21 16:40:37;;;;;;;19.00;16.92;;;;;;;;;;10248733;28;20076;-59
2024/03/21 16:45:36;;;;;;;13.60;10.63;;;;;;;;;;10247334;28;20061;-59
2024/03/21 16:50:33;;;;;;;19.35;14.98;;;;;;;;;;10247421;28;20076;-58
2024/03/21 16:55:32;;;;;;;20.75;18.13;;;;;;;;;;10244294;28;20096;-58
2024/03/21 17:00:29;;;;;;;19.02;17.08;;;;;;;;;;10261531;28;20068;-58
2024/03/21 17:05:28;;;;;;;19.80;14.93;;;;;;;;;;10247389;28;20489;-55
2024/03/21 17:10:26;;;;;;;17.85;13.98;;;;;;;;;;10252291;28;20080;-58
2024/03/21 17:15:24;;;;;;;17.10;13.50;;;;;;;;;;10273217;28;20084;-58
2024/03/21 17:20:22;;;;;;;18.85;9.32;;;;;;;;;;10295921;28;20484;-58
2024/03/21 17:25:20;;;;;;;9.20;7.80;;;;;;;;;;10275305;28;20079;-58
2024/03/21 17:30:18;;;;;;;12.32;11.13;;;;;;;;;;10272097;28;20088;-59
2024/03/21 17:35:15;;;;;;;10.10;8.55;;;;;;;;;;10274584;28;20506;-58
2024/03/21 17:40:13;;;;;;;7.18;6.47;;;;;;;;;;10274384;28;20485;-57
2024/03/21 17:45:12;;;;;;;8.30;6.78;;;;;;;;;;10274011;28;20064;-58
2024/03/21 17:50:10;;;;;;;11.05;7.25;;;;;;;;;;10267582;28;20512;-59
2024/03/21 17:55:08;;;;;;;5.22;4.13;;;;;;;;;;10267057;28;20564;-58
2024/03/21 18:00:06;;;;;;;6.10;5.13;;;;;;;;;;10273797;28;20069;-58
2024/03/21 18:05:05;;;;;;;6.60;4.82;;;;;;;;;;10278833;28;20060;-59
2024/03/21 18:10:02;;;;;;;4.63;4.13;;;;;;;;;;10279117;28;20076;-59
2024/03/21 18:15:00;;;;;;;7.43;3.88;;;;;;;;;;10273883;28;20106;-59
2024/03/21 18:19:59;;;;;;;4.13;3.78;;;;;;;;;;10274351;28;20080;-58
2024/03/21 18:24:59;;;;;;;4.18;3.78;;;;;;;;;;10274476;28;20087;-58
2024/03/21 18:29:57;;;;;;;4.95;3.38;;;;;;;;;;10289195;28;20091;-58
2024/03/21 18:34:54;;;;;;;3.75;3.45;;;;;;;;;;10287016;28;20541;-59
2024/03/21 18:39:53;;;;;;;3.70;3.40;;;;;;;;;;10286148;28;20079;-59
2024/03/21 18:44:52;;;;;;;3.92;3.38;;;;;;;;;;10286526;28;20069;-59
2024/03/21 18:49:49;;;;;;;4.15;3.83;;;;;;;;;;10282238;28;20076;-58
2024/03/21 18:54:47;;;;;;;4.55;4.15;;;;;;;;;;10266894;28;20080;-58
2024/03/21 18:59:45;;;;;;;4.70;4.30;;;;;;;;;;10282085;28;20516;-58
2024/03/21 19:04:44;;;;;;;7.10;4.65;;;;;;;;;;10280637;28;20610;-59
2024/03/21 19:09:43;;;;;;;4.07;3.78;;;;;;;;;;10281857;28;20496;-59
2024/03/21 19:14:40;;;;;;;6.20;4.32;;;;;;;;;;10284491;28;20429;-59
2024/03/21 19:19:39;;;;;;;18.05;13.48;;;;;;;;;;10282586;28;20076;-59
2024/03/21 19:24:41;;;;;;;3.88;3.47;;;;;;;;;;10281118;28;20466;-59
2024/03/21 19:29:38;;;;;;;6.10;5.47;;;;;;;;;;10280346;28;20969;-58
2024/03/21 19:34:37;;;;;;;7.30;6.55;;;;;;;;;;10285997;28;20442;-59
2024/03/21 19:39:35;;;;;;;12.00;6.30;;;;;;;;;;10282519;28;20079;-58
2024/03/21 19:44:34;;;;;;;5.35;4.85;;;;;;;;;;10276444;28;20064;-59
2024/03/21 19:49:32;;;;;;;5.03;4.53;;;;;;;;;;10281619;28;20061;-58
2024/03/21 19:54:29;;;;;;;8.63;5.63;;;;;;;;;;10283099;28;20501;-56
2024/03/21 19:59:27;;;;;;;8.98;5.60;;;;;;;;;;10281142;28;20072;-57
2024/03/21 20:04:26;;;;;;;4.82;4.43;;;;;;;;;;10283024;28;20079;-56
2024/03/21 20:09:23;;;;;;;10.18;7.28;;;;;;;;;;10283654;28;20068;-57
2024/03/21 20:14:21;;;;;;;13.48;9.20;;;;;;;;;;10276804;28;20107;-57
2024/03/21 20:19:18;;;;;;;9.65;6.13;;;;;;;;;;10278824;28;20060;-58
2024/03/21 20:24:17;;;;;;;6.03;4.90;;;;;;;;;;10282818;28;20055;-57
2024/03/21 20:29:14;;;;;;;5.03;4.18;;;;;;;;;;10277730;28;20075;-57
2024/03/21 20:34:12;;;;;;;6.28;5.07;;;;;;;;;;10277558;28;20080;-57
2024/03/21 20:39:09;;;;;;;8.93;5.82;;;;;;;;;;10278390;28;20512;-52
2024/03/21 20:44:08;;;;;;;8.40;5.80;;;;;;;;;;10279563;28;20457;-59
2024/03/21 20:49:06;;;;;;;7.88;6.43;;;;;;;;;;10280971;28;20068;-58
2024/03/21 20:54:03;;;;;;;6.60;5.53;;;;;;;;;;10273899;28;20068;-57
2024/03/21 20:59:01;;;;;;;7.90;6.28;;;;;;;;;;10274939;28;20060;-56
2024/03/21 21:04:00;;;;;;;5.45;4.50;;;;;;;;;;10277641;28;20084;-57
2024/03/21 21:08:57;;;;;;;5.07;4.60;;;;;;;;;;10277108;28;20073;-58
2024/03/21 21:13:54;;;;;;;6.03;5.03;;;;;;;;;;10280872;28;20450;-59
2024/03/21 21:18:52;;;;;;;5.93;5.32;;;;;;;;;;10273335;28;20064;-58
2024/03/21 21:23:53;;;;;;;7.20;5.22;;;;;;;;;;10277460;28;20075;-59
2024/03/21 21:28:50;;;;;;;7.13;5.63;;;;;;;;;;10274040;28;20037;-58
2024/03/21 21:33:48;;;;;;;8.27;7.25;;;;;;;;;;10275235;28;20064;-58
2024/03/21 21:38:45;;;;;;;6.13;5.53;;;;;;;;;;10274040;28;20484;-57
2024/03/21 21:43:45;;;;;;;6.53;5.93;;;;;;;;;;10273699;28;20071;-58
2024/03/21 21:48:43;;;;;;;6.22;5.43;;;;;;;;;;10276620;28;20080;-57
2024/03/21 21:53:45;;;;;;;5.47;4.97;;;;;;;;;;10277943;28;20551;-58
2024/03/21 21:58:43;;;;;;;6.82;5.47;;;;;;;;;;10279539;28;20044;-56
2024/03/21 22:03:42;;;;;;;10.50;6.25;;;;;;;;;;10282776;28;20076;-57
2024/03/21 22:08:40;;;;;;;5.82;5.25;;;;;;;;;;10282343;28;20072;-58
2024/03/21 22:13:38;;;;;;;6.68;5.97;;;;;;;;;;10289644;28;20521;-58
2024/03/21 22:18:35;;;;;;;6.35;5.72;;;;;;;;;;10281040;28;20088;-57
2024/03/21 22:23:34;;;;;;;6.63;5.97;;;;;;;;;;10282884;28;20088;-55
2024/03/21 22:28:33;;;;;;;6.40;5.80;;;;;;;;;;10280197;28;20091;-58
2024/03/21 22:33:30;;;;;;;7.00;6.30;;;;;;;;;;10282430;28;20067;-57
2024/03/21 22:38:28;;;;;;;7.55;5.97;;;;;;;;;;10282236;28;20094;-58
2024/03/21 22:43:27;;;;;;;8.70;6.57;;;;;;;;;;10288884;28;20098;-58
2024/03/21 22:48:24;;;;;;;6.82;6.13;;;;;;;;;;10313988;28;20517;-57
2024/03/21 22:53:22;;;;;;;7.40;6.05;;;;;;;;;;10281273;28;20051;-59
2024/03/21 22:58:19;;;;;;;6.15;5.55;;;;;;;;;;10279690;28;20067;-58
2024/03/21 23:03:18;;;;;;;9.98;6.10;;;;;;;;;;10281269;28;20068;-59
2024/03/21 23:08:15;;;;;;;6.93;6.25;;;;;;;;;;10279169;28;20087;-58
2024/03/21 23:13:13;;;;;;;7.30;6.60;;;;;;;;;;10276890;28;20088;-58
2024/03/21 23:18:10;;;;;;;7.50;6.80;;;;;;;;;;10281313;28;20080;-58
2024/03/21 23:23:09;;;;;;;6.85;6.18;;;;;;;;;;10279161;28;20073;-58
2024/03/21 23:28:06;;;;;;;7.88;7.05;;;;;;;;;;10278461;28;20072;-58
2024/03/21 23:33:04;;;;;;;7.72;6.72;;;;;;;;;;10279519;28;20083;-58
2024/03/21 23:38:01;;;;;;;7.38;6.68;;;;;;;;;;10284965;28;20087;-58
2024/03/21 23:43:00;;;;;;;8.13;6.97;;;;;;;;;;10285022;28;20072;-58
2024/03/21 23:47:58;;;;;;;7.80;7.00;;;;;;;;;;10278231;28;20072;-60
2024/03/21 23:52:55;;;;;;;7.28;6.55;;;;;;;;;;10292732;28;20068;-58
2024/03/21 23:57:52;;;;;;;8.55;7.53;;;;;;;;;;10278101;28;20069;-58
